This is the latest recevied weather packets stored in our database for station/object GW1482. If no packets are shown the sender has not sent any weather packets the latest 10 day(s).
| Time | Temp. | Humidity | Pressure | Rain* | Wind** | Luminosity | Snow |
|---|---|---|---|---|---|---|---|
| 1778225607 | 0.56° C | 98% | 1000.6 hPa | 0 mm | - | - | - |
| 1778223818 | 1.11° C | 97% | 1001 hPa | 0 mm | - | - | - |
| 1778223093 | 1.67° C | 97% | 1001 hPa | 0 mm | - | - | - |
| 1778221662 | 1.67° C | 96% | 1000.6 hPa | 0 mm | - | - | - |
| 1778216589 | 3.33° C | 89% | 1001 hPa | 0 mm | - | - | - |
| 1778215176 | 3.33° C | 84% | 1001 hPa | 0 mm | - | - | - |
| 1778214828 | 3.89° C | 85% | 1000.6 hPa | 0 mm | - | - | - |
| 1778214444 | 3.89° C | 84% | 1000.6 hPa | 0 mm | - | - | - |
| 1778212998 | 5.56° C | 79% | 1000.6 hPa | 0 mm | - | - | - |
| 1778211926 | 5.56° C | 77% | 1000.3 hPa | 2.29 mm | - | - | - |
| 1778211201 | 5.56° C | 75% | 1000.3 hPa | 2.29 mm | - | - | - |
| 1778207621 | 6.11° C | 80% | 1000 hPa | 2.29 mm | - | - | - |
| 1778206515 | 6.67° C | 80% | 999.6 hPa | 2.29 mm | - | - | - |
| 1778203645 | 7.22° C | 75% | 999.3 hPa | 2.29 mm | - | - | - |
| 1778200420 | 8.33° C | 73% | 998.9 hPa | 2.29 mm | - | - | - |
| 1778199671 | 8.89° C | 72% | 998.6 hPa | 2.29 mm | - | - | - |
| 1778198990 | 9.44° C | 64% | 998.6 hPa | 2.29 mm | - | - | - |
| 1778196827 | 11.11° C | 59% | 998.3 hPa | 2.29 mm | - | - | - |
| 1778194280 | 12.22° C | 57% | 997.6 hPa | 2.29 mm | - | - | - |
| 1778193927 | 11.67° C | 61% | 997.9 hPa | 2.29 mm | - | - | - |
| 1778193558 | 12.22° C | 58% | 997.6 hPa | 2.29 mm | - | - | - |
| 1778192839 | 12.22° C | 60% | 997.9 hPa | 2.29 mm | - | - | - |
| 1778185312 | 12.22° C | 63% | 996.9 hPa | 2.29 mm | - | - | - |
| 1778182052 | 12.78° C | 58% | 997.2 hPa | 2.29 mm | - | - | - |
| 1778174852 | 10.56° C | 68% | 997.9 hPa | 2.29 mm | - | - | - |
* Rain since midnight (hover to see other rain measurements)
** Current wind speed in m/s (hover to see current wind gust speed)